Airfield :
LOGIN :

Register | Disclaimer

   EN    FR    IT 

 










Legend :    VFR   Marginal VFR   IFR   Intensive IFR   Very Intensive IFR
Visi :
Ceiling :
>= 8 km
>= 3000ft
5 to 8 km
1000 to 3000 ft
1500m to 5 km
500 to 1000 ft
800 to 1500m
200 to 500 ft
< 800m
< 200 ft
Symbols :   Thunderstorms  Fog  Heavy snow  Heavy precipitations  Wind > 20 kt
SIGMETs :     Misc.  Thunderstorms  Icing  Turbulence  Mountain Waves  Volcanic Ashes






- Airport Elevation : 512 ft
- IATA code : URO


LFOP - Rouen Vallée de Seine

CURRENT METAR :
  • 150600Z AUTO 22009KT 9999 BKN011 OVC036 12/11 Q1005 TEMPO BKN006

EXPIRED METARs :
  • 150530Z AUTO 19007KT 9999 SCT012 OVC036 12/12 Q1005 TEMPO BKN006
  • 150500Z AUTO 18006KT 9999 OVC040 12/12 Q1005
  • 150430Z AUTO 18006KT 9999 SCT005 OVC035 12/12 Q1005
  • 150400Z AUTO 18005KT 9999 BKN006 BKN010 OVC030 12/12 Q1005
  • 150330Z AUTO 16006KT 9999 SCT009 BKN014 BKN022 12/12 Q1005

TAF TAF LFOP
Valid from the 15 at 06:00 until the 16 at 06:00 UTC


150500Z 1506/1606 20008KT 9999 BKN020
TEMPO 1506/1510 BKN012
PROB40
TEMPO 1506/1509 BKN006
TEMPO 1514/1518 20015G25KT 3000 SHRA BKN012TCU
BECMG 1522/1601 17015KT
TEMPO 1601/1606 17017G27KT 3000 RADZ BKN006 OVC013
ATIS : +33 2 35 80 80 34
Met : +33 2 32 86 52 80



MET'MAP, your aeronautical weather chart ! - Copyright ORBIFLY December 2007 - Disclaimer

ORBIFLY MET'MAP TEAM :

Programming & Development : Alexandra Zaïnal
Concept & Development : Baudouin d'Aumeries
Co-Development & Prog : Marc-Olivier Méhu
Technical & hardware support : Manuel Goepfert

Contact : metmap@orbifly.com




SOURCES & CREDITS :

   NOAA